sensor_id;sensor_type;location;lat;lon;timestamp;P1;durP1;ratioP1;P2;durP2;ratioP2
21206;SDS011;10761;48.532;8.026;2023-03-02T00:01:59;34.63;;;21.92;;
21206;SDS011;10761;48.532;8.026;2023-03-02T00:04:50;37.55;;;22.08;;
21206;SDS011;10761;48.532;8.026;2023-03-02T00:07:23;36.78;;;21.90;;
21206;SDS011;10761;48.532;8.026;2023-03-02T00:09:54;36.03;;;22.08;;
21206;SDS011;10761;48.532;8.026;2023-03-02T00:12:19;38.17;;;23.02;;
21206;SDS011;10761;48.532;8.026;2023-03-02T00:14:45;34.72;;;21.20;;
21206;SDS011;10761;48.532;8.026;2023-03-02T00:17:11;35.78;;;22.42;;
21206;SDS011;10761;48.532;8.026;2023-03-02T00:19:36;35.53;;;21.27;;
21206;SDS011;10761;48.532;8.026;2023-03-02T00:22:02;37.72;;;21.58;;
21206;SDS011;10761;48.532;8.026;2023-03-02T00:24:29;34.00;;;22.23;;
21206;SDS011;10761;48.532;8.026;2023-03-02T00:26:54;35.45;;;21.95;;
21206;SDS011;10761;48.532;8.026;2023-03-02T00:29:20;32.42;;;21.13;;
21206;SDS011;10761;48.532;8.026;2023-03-02T00:31:46;38.47;;;23.23;;
21206;SDS011;10761;48.532;8.026;2023-03-02T00:34:11;34.05;;;22.00;;
21206;SDS011;10761;48.532;8.026;2023-03-02T00:36:37;36.30;;;22.58;;
21206;SDS011;10761;48.532;8.026;2023-03-02T00:39:03;35.50;;;21.15;;
21206;SDS011;10761;48.532;8.026;2023-03-02T00:41:28;34.47;;;21.13;;
21206;SDS011;10761;48.532;8.026;2023-03-02T00:43:54;37.08;;;21.88;;
21206;SDS011;10761;48.532;8.026;2023-03-02T00:46:20;35.00;;;21.88;;
21206;SDS011;10761;48.532;8.026;2023-03-02T00:48:48;33.00;;;21.08;;
21206;SDS011;10761;48.532;8.026;2023-03-02T00:51:15;33.72;;;21.15;;
21206;SDS011;10761;48.532;8.026;2023-03-02T00:53:41;33.13;;;20.60;;
21206;SDS011;10761;48.532;8.026;2023-03-02T00:56:08;34.63;;;20.83;;
21206;SDS011;10761;48.532;8.026;2023-03-02T00:58:34;35.30;;;21.58;;
21206;SDS011;10761;48.532;8.026;2023-03-02T01:01:07;35.22;;;21.73;;
21206;SDS011;10761;48.532;8.026;2023-03-02T01:03:35;34.28;;;20.60;;
21206;SDS011;10761;48.532;8.026;2023-03-02T01:06:01;33.65;;;20.83;;
21206;SDS011;10761;48.532;8.026;2023-03-02T01:08:27;33.38;;;20.08;;
21206;SDS011;10761;48.532;8.026;2023-03-02T01:10:53;35.17;;;20.98;;
21206;SDS011;10761;48.532;8.026;2023-03-02T01:13:18;32.28;;;20.40;;
21206;SDS011;10761;48.532;8.026;2023-03-02T01:15:44;33.88;;;20.38;;
21206;SDS011;10761;48.532;8.026;2023-03-02T01:18:10;37.20;;;21.20;;
21206;SDS011;10761;48.532;8.026;2023-03-02T01:20:36;42.40;;;22.25;;
21206;SDS011;10761;48.532;8.026;2023-03-02T01:23:01;33.17;;;20.45;;
21206;SDS011;10761;48.532;8.026;2023-03-02T01:25:27;31.55;;;20.85;;
21206;SDS011;10761;48.532;8.026;2023-03-02T01:27:52;35.65;;;20.88;;
21206;SDS011;10761;48.532;8.026;2023-03-02T01:30:18;35.75;;;21.65;;
21206;SDS011;10761;48.532;8.026;2023-03-02T01:32:44;32.40;;;21.08;;
21206;SDS011;10761;48.532;8.026;2023-03-02T01:35:10;36.20;;;21.98;;
21206;SDS011;10761;48.532;8.026;2023-03-02T01:37:35;35.55;;;21.38;;
21206;SDS011;10761;48.532;8.026;2023-03-02T01:40:01;35.72;;;22.00;;
21206;SDS011;10761;48.532;8.026;2023-03-02T01:42:37;35.03;;;19.92;;
21206;SDS011;10761;48.532;8.026;2023-03-02T01:45:05;32.92;;;20.13;;
21206;SDS011;10761;48.532;8.026;2023-03-02T01:47:51;34.58;;;20.08;;
21206;SDS011;10761;48.532;8.026;2023-03-02T01:50:20;35.30;;;21.02;;
21206;SDS011;10761;48.532;8.026;2023-03-02T01:52:50;37.42;;;22.13;;
21206;SDS011;10761;48.532;8.026;2023-03-02T01:55:18;34.78;;;21.30;;
21206;SDS011;10761;48.532;8.026;2023-03-02T01:57:48;35.05;;;22.00;;
21206;SDS011;10761;48.532;8.026;2023-03-02T02:00:23;33.75;;;21.67;;
21206;SDS011;10761;48.532;8.026;2023-03-02T02:02:51;33.50;;;21.25;;
21206;SDS011;10761;48.532;8.026;2023-03-02T02:05:20;34.05;;;22.13;;
21206;SDS011;10761;48.532;8.026;2023-03-02T02:07:48;37.65;;;21.25;;
21206;SDS011;10761;48.532;8.026;2023-03-02T02:10:13;38.47;;;23.02;;
21206;SDS011;10761;48.532;8.026;2023-03-02T02:12:39;36.33;;;22.60;;
21206;SDS011;10761;48.532;8.026;2023-03-02T02:15:05;39.45;;;24.45;;
21206;SDS011;10761;48.532;8.026;2023-03-02T02:17:31;39.45;;;24.48;;
21206;SDS011;10761;48.532;8.026;2023-03-02T02:23:05;37.17;;;23.30;;
21206;SDS011;10761;48.532;8.026;2023-03-02T02:25:44;38.97;;;23.63;;
21206;SDS011;10761;48.532;8.026;2023-03-02T02:28:43;37.13;;;22.45;;
21206;SDS011;10761;48.532;8.026;2023-03-02T02:31:19;36.55;;;22.55;;
21206;SDS011;10761;48.532;8.026;2023-03-02T02:34:02;40.15;;;22.65;;
21206;SDS011;10761;48.532;8.026;2023-03-02T02:36:36;35.88;;;21.15;;
21206;SDS011;10761;48.532;8.026;2023-03-02T02:39:06;36.50;;;22.03;;
21206;SDS011;10761;48.532;8.026;2023-03-02T02:41:35;40.38;;;22.42;;
21206;SDS011;10761;48.532;8.026;2023-03-02T02:44:03;41.85;;;23.13;;
21206;SDS011;10761;48.532;8.026;2023-03-02T02:46:29;40.20;;;22.90;;
21206;SDS011;10761;48.532;8.026;2023-03-02T02:48:56;39.83;;;23.50;;
21206;SDS011;10761;48.532;8.026;2023-03-02T02:51:24;40.65;;;23.08;;
21206;SDS011;10761;48.532;8.026;2023-03-02T02:53:58;36.53;;;22.30;;
21206;SDS011;10761;48.532;8.026;2023-03-02T02:56:26;35.65;;;21.52;;
21206;SDS011;10761;48.532;8.026;2023-03-02T03:01:28;36.55;;;21.40;;
21206;SDS011;10761;48.532;8.026;2023-03-02T03:03:55;38.92;;;22.08;;
21206;SDS011;10761;48.532;8.026;2023-03-02T03:06:23;41.53;;;22.83;;
21206;SDS011;10761;48.532;8.026;2023-03-02T03:08:52;38.33;;;22.92;;
21206;SDS011;10761;48.532;8.026;2023-03-02T03:11:22;38.70;;;22.38;;
21206;SDS011;10761;48.532;8.026;2023-03-02T03:13:55;36.50;;;23.50;;
21206;SDS011;10761;48.532;8.026;2023-03-02T03:16:43;37.92;;;23.02;;
21206;SDS011;10761;48.532;8.026;2023-03-02T03:19:23;40.25;;;23.23;;
21206;SDS011;10761;48.532;8.026;2023-03-02T03:21:55;37.28;;;22.30;;
21206;SDS011;10761;48.532;8.026;2023-03-02T03:24:22;41.17;;;23.70;;
21206;SDS011;10761;48.532;8.026;2023-03-02T03:26:48;39.00;;;23.23;;
21206;SDS011;10761;48.532;8.026;2023-03-02T03:29:15;38.05;;;22.55;;
21206;SDS011;10761;48.532;8.026;2023-03-02T03:31:42;38.78;;;22.90;;
21206;SDS011;10761;48.532;8.026;2023-03-02T03:34:08;35.70;;;22.33;;
21206;SDS011;10761;48.532;8.026;2023-03-02T03:36:34;34.65;;;21.95;;
21206;SDS011;10761;48.532;8.026;2023-03-02T03:39:00;38.35;;;23.08;;
21206;SDS011;10761;48.532;8.026;2023-03-02T03:41:27;39.08;;;23.40;;
21206;SDS011;10761;48.532;8.026;2023-03-02T03:43:53;42.03;;;23.98;;
21206;SDS011;10761;48.532;8.026;2023-03-02T03:46:18;45.92;;;24.88;;
21206;SDS011;10761;48.532;8.026;2023-03-02T03:48:44;40.53;;;24.63;;
21206;SDS011;10761;48.532;8.026;2023-03-02T03:51:10;41.03;;;23.38;;
21206;SDS011;10761;48.532;8.026;2023-03-02T03:53:36;44.72;;;25.08;;
21206;SDS011;10761;48.532;8.026;2023-03-02T03:56:02;42.63;;;22.88;;
21206;SDS011;10761;48.532;8.026;2023-03-02T03:58:28;38.65;;;23.63;;
21206;SDS011;10761;48.532;8.026;2023-03-02T04:00:55;39.42;;;22.52;;
21206;SDS011;10761;48.532;8.026;2023-03-02T04:03:21;40.97;;;24.23;;
21206;SDS011;10761;48.532;8.026;2023-03-02T04:05:47;38.33;;;23.02;;
21206;SDS011;10761;48.532;8.026;2023-03-02T04:08:13;43.17;;;22.83;;
21206;SDS011;10761;48.532;8.026;2023-03-02T04:10:38;39.58;;;23.45;;
21206;SDS011;10761;48.532;8.026;2023-03-02T04:13:04;36.50;;;23.08;;
21206;SDS011;10761;48.532;8.026;2023-03-02T04:15:30;38.42;;;23.25;;
21206;SDS011;10761;48.532;8.026;2023-03-02T04:17:56;36.80;;;22.95;;
21206;SDS011;10761;48.532;8.026;2023-03-02T04:20:22;38.78;;;23.13;;
21206;SDS011;10761;48.532;8.026;2023-03-02T04:22:49;35.83;;;22.33;;
21206;SDS011;10761;48.532;8.026;2023-03-02T04:25:17;36.72;;;23.35;;
21206;SDS011;10761;48.532;8.026;2023-03-02T04:27:45;39.63;;;24.15;;
21206;SDS011;10761;48.532;8.026;2023-03-02T04:30:14;42.97;;;25.83;;
21206;SDS011;10761;48.532;8.026;2023-03-02T04:32:41;36.25;;;22.92;;
21206;SDS011;10761;48.532;8.026;2023-03-02T04:35:08;40.55;;;23.02;;
21206;SDS011;10761;48.532;8.026;2023-03-02T04:37:38;40.22;;;23.70;;
21206;SDS011;10761;48.532;8.026;2023-03-02T04:40:06;38.22;;;24.55;;
21206;SDS011;10761;48.532;8.026;2023-03-02T04:42:32;41.63;;;24.38;;
21206;SDS011;10761;48.532;8.026;2023-03-02T04:44:58;44.45;;;25.38;;
21206;SDS011;10761;48.532;8.026;2023-03-02T04:47:24;39.22;;;23.65;;
21206;SDS011;10761;48.532;8.026;2023-03-02T04:49:50;40.60;;;25.95;;
21206;SDS011;10761;48.532;8.026;2023-03-02T04:52:18;40.50;;;24.92;;
21206;SDS011;10761;48.532;8.026;2023-03-02T04:54:45;44.03;;;25.52;;
21206;SDS011;10761;48.532;8.026;2023-03-02T04:57:11;45.13;;;25.92;;
21206;SDS011;10761;48.532;8.026;2023-03-02T04:59:36;40.65;;;25.55;;
21206;SDS011;10761;48.532;8.026;2023-03-02T05:02:02;42.38;;;25.73;;
21206;SDS011;10761;48.532;8.026;2023-03-02T05:04:29;45.53;;;25.63;;
21206;SDS011;10761;48.532;8.026;2023-03-02T05:06:55;42.03;;;26.13;;
21206;SDS011;10761;48.532;8.026;2023-03-02T05:09:21;42.33;;;25.45;;
21206;SDS011;10761;48.532;8.026;2023-03-02T05:11:51;43.55;;;25.77;;
21206;SDS011;10761;48.532;8.026;2023-03-02T05:14:19;46.38;;;26.77;;
21206;SDS011;10761;48.532;8.026;2023-03-02T05:16:44;45.58;;;26.52;;
21206;SDS011;10761;48.532;8.026;2023-03-02T05:19:10;43.90;;;27.27;;
21206;SDS011;10761;48.532;8.026;2023-03-02T05:21:36;45.70;;;26.27;;
21206;SDS011;10761;48.532;8.026;2023-03-02T05:24:03;44.58;;;26.10;;
21206;SDS011;10761;48.532;8.026;2023-03-02T05:26:28;48.75;;;29.08;;
21206;SDS011;10761;48.532;8.026;2023-03-02T05:28:54;52.67;;;31.80;;
21206;SDS011;10761;48.532;8.026;2023-03-02T05:31:21;47.55;;;28.88;;
21206;SDS011;10761;48.532;8.026;2023-03-02T05:33:55;46.75;;;28.30;;
21206;SDS011;10761;48.532;8.026;2023-03-02T05:36:21;51.38;;;27.90;;
21206;SDS011;10761;48.532;8.026;2023-03-02T05:38:47;49.65;;;28.50;;
21206;SDS011;10761;48.532;8.026;2023-03-02T05:41:13;45.90;;;27.60;;
21206;SDS011;10761;48.532;8.026;2023-03-02T05:43:39;47.05;;;29.33;;
21206;SDS011;10761;48.532;8.026;2023-03-02T05:46:04;49.40;;;30.08;;
21206;SDS011;10761;48.532;8.026;2023-03-02T05:48:30;48.25;;;29.08;;
21206;SDS011;10761;48.532;8.026;2023-03-02T05:50:56;48.17;;;29.30;;
21206;SDS011;10761;48.532;8.026;2023-03-02T05:53:22;50.13;;;28.27;;
21206;SDS011;10761;48.532;8.026;2023-03-02T05:55:48;44.65;;;28.20;;
21206;SDS011;10761;48.532;8.026;2023-03-02T05:58:15;45.33;;;28.27;;
21206;SDS011;10761;48.532;8.026;2023-03-02T06:00:42;47.63;;;28.23;;
21206;SDS011;10761;48.532;8.026;2023-03-02T06:03:08;47.70;;;28.02;;
21206;SDS011;10761;48.532;8.026;2023-03-02T06:05:34;45.03;;;26.90;;
21206;SDS011;10761;48.532;8.026;2023-03-02T06:08:00;46.50;;;27.52;;
21206;SDS011;10761;48.532;8.026;2023-03-02T06:10:26;46.05;;;26.05;;
21206;SDS011;10761;48.532;8.026;2023-03-02T06:12:52;41.85;;;26.30;;
21206;SDS011;10761;48.532;8.026;2023-03-02T06:15:17;46.63;;;26.75;;
21206;SDS011;10761;48.532;8.026;2023-03-02T06:17:43;49.47;;;27.80;;
21206;SDS011;10761;48.532;8.026;2023-03-02T06:20:09;46.28;;;27.10;;
21206;SDS011;10761;48.532;8.026;2023-03-02T06:22:37;46.50;;;26.73;;
21206;SDS011;10761;48.532;8.026;2023-03-02T06:25:10;47.22;;;28.52;;
21206;SDS011;10761;48.532;8.026;2023-03-02T06:27:41;51.35;;;29.08;;
21206;SDS011;10761;48.532;8.026;2023-03-02T06:30:08;46.80;;;27.70;;
21206;SDS011;10761;48.532;8.026;2023-03-02T06:32:37;48.47;;;28.38;;
21206;SDS011;10761;48.532;8.026;2023-03-02T06:35:03;44.42;;;27.50;;
21206;SDS011;10761;48.532;8.026;2023-03-02T06:37:30;45.88;;;27.38;;
21206;SDS011;10761;48.532;8.026;2023-03-02T06:39:57;48.30;;;27.52;;
21206;SDS011;10761;48.532;8.026;2023-03-02T06:42:23;46.95;;;26.38;;
21206;SDS011;10761;48.532;8.026;2023-03-02T06:44:50;44.13;;;26.35;;
21206;SDS011;10761;48.532;8.026;2023-03-02T06:47:19;49.78;;;27.60;;
21206;SDS011;10761;48.532;8.026;2023-03-02T06:49:48;45.85;;;27.30;;
21206;SDS011;10761;48.532;8.026;2023-03-02T06:52:14;47.75;;;27.48;;
21206;SDS011;10761;48.532;8.026;2023-03-02T06:54:40;43.72;;;27.45;;
21206;SDS011;10761;48.532;8.026;2023-03-02T06:57:05;44.03;;;27.40;;
21206;SDS011;10761;48.532;8.026;2023-03-02T06:59:31;48.97;;;28.27;;
21206;SDS011;10761;48.532;8.026;2023-03-02T07:01:57;49.10;;;28.33;;
21206;SDS011;10761;48.532;8.026;2023-03-02T07:04:23;46.28;;;27.02;;
21206;SDS011;10761;48.532;8.026;2023-03-02T07:06:48;49.00;;;30.08;;
21206;SDS011;10761;48.532;8.026;2023-03-02T07:09:14;49.05;;;29.70;;
21206;SDS011;10761;48.532;8.026;2023-03-02T07:11:40;46.95;;;27.52;;
21206;SDS011;10761;48.532;8.026;2023-03-02T07:14:06;45.45;;;28.45;;
21206;SDS011;10761;48.532;8.026;2023-03-02T07:16:32;46.25;;;26.02;;
21206;SDS011;10761;48.532;8.026;2023-03-02T07:18:58;43.72;;;26.08;;
21206;SDS011;10761;48.532;8.026;2023-03-02T07:21:24;45.40;;;25.65;;
21206;SDS011;10761;48.532;8.026;2023-03-02T07:23:50;44.30;;;26.67;;
21206;SDS011;10761;48.532;8.026;2023-03-02T07:26:16;44.80;;;27.77;;
21206;SDS011;10761;48.532;8.026;2023-03-02T07:28:42;47.67;;;28.08;;
21206;SDS011;10761;48.532;8.026;2023-03-02T07:31:08;44.58;;;28.15;;
21206;SDS011;10761;48.532;8.026;2023-03-02T07:33:35;40.88;;;26.80;;
21206;SDS011;10761;48.532;8.026;2023-03-02T07:36:02;43.63;;;28.00;;
21206;SDS011;10761;48.532;8.026;2023-03-02T07:38:28;47.45;;;29.63;;
21206;SDS011;10761;48.532;8.026;2023-03-02T07:40:54;55.15;;;34.88;;
21206;SDS011;10761;48.532;8.026;2023-03-02T07:43:20;45.22;;;29.95;;
21206;SDS011;10761;48.532;8.026;2023-03-02T07:45:47;45.22;;;27.60;;
21206;SDS011;10761;48.532;8.026;2023-03-02T07:48:13;40.85;;;27.48;;
21206;SDS011;10761;48.532;8.026;2023-03-02T07:50:39;44.50;;;28.55;;
21206;SDS011;10761;48.532;8.026;2023-03-02T07:53:05;41.22;;;27.95;;
21206;SDS011;10761;48.532;8.026;2023-03-02T07:55:30;43.35;;;28.88;;
21206;SDS011;10761;48.532;8.026;2023-03-02T07:57:56;39.90;;;26.50;;
21206;SDS011;10761;48.532;8.026;2023-03-02T08:00:22;38.75;;;25.98;;
21206;SDS011;10761;48.532;8.026;2023-03-02T08:02:48;38.75;;;25.70;;
21206;SDS011;10761;48.532;8.026;2023-03-02T08:05:13;37.35;;;24.67;;
21206;SDS011;10761;48.532;8.026;2023-03-02T08:07:39;36.88;;;25.13;;
21206;SDS011;10761;48.532;8.026;2023-03-02T08:10:06;35.85;;;26.40;;
21206;SDS011;10761;48.532;8.026;2023-03-02T08:12:32;39.38;;;26.20;;
21206;SDS011;10761;48.532;8.026;2023-03-02T08:14:58;34.08;;;25.67;;
21206;SDS011;10761;48.532;8.026;2023-03-02T08:17:23;37.67;;;26.67;;
21206;SDS011;10761;48.532;8.026;2023-03-02T08:19:49;40.83;;;27.67;;
21206;SDS011;10761;48.532;8.026;2023-03-02T08:22:14;35.85;;;26.70;;
21206;SDS011;10761;48.532;8.026;2023-03-02T08:24:40;39.03;;;27.55;;
21206;SDS011;10761;48.532;8.026;2023-03-02T08:27:07;40.08;;;28.00;;
21206;SDS011;10761;48.532;8.026;2023-03-02T08:29:36;37.78;;;26.85;;
21206;SDS011;10761;48.532;8.026;2023-03-02T08:32:02;32.85;;;24.80;;
21206;SDS011;10761;48.532;8.026;2023-03-02T08:34:28;38.55;;;26.58;;
21206;SDS011;10761;48.532;8.026;2023-03-02T08:36:54;32.45;;;24.73;;
21206;SDS011;10761;48.532;8.026;2023-03-02T08:39:19;35.20;;;24.55;;
21206;SDS011;10761;48.532;8.026;2023-03-02T08:41:49;33.20;;;24.60;;
21206;SDS011;10761;48.532;8.026;2023-03-02T08:44:15;31.33;;;23.60;;
21206;SDS011;10761;48.532;8.026;2023-03-02T08:46:41;33.58;;;24.13;;
21206;SDS011;10761;48.532;8.026;2023-03-02T08:49:07;33.50;;;23.95;;
21206;SDS011;10761;48.532;8.026;2023-03-02T08:51:33;29.08;;;23.35;;
21206;SDS011;10761;48.532;8.026;2023-03-02T08:53:59;36.63;;;24.73;;
21206;SDS011;10761;48.532;8.026;2023-03-02T08:56:28;35.60;;;24.98;;
21206;SDS011;10761;48.532;8.026;2023-03-02T08:59:00;36.13;;;26.83;;
21206;SDS011;10761;48.532;8.026;2023-03-02T09:01:28;35.88;;;27.30;;
21206;SDS011;10761;48.532;8.026;2023-03-02T09:03:55;39.60;;;28.02;;
21206;SDS011;10761;48.532;8.026;2023-03-02T09:06:23;36.63;;;27.58;;
21206;SDS011;10761;48.532;8.026;2023-03-02T09:08:49;40.15;;;27.98;;
21206;SDS011;10761;48.532;8.026;2023-03-02T09:11:15;38.70;;;28.10;;
21206;SDS011;10761;48.532;8.026;2023-03-02T09:13:41;39.47;;;28.17;;
21206;SDS011;10761;48.532;8.026;2023-03-02T09:16:07;39.38;;;28.17;;
21206;SDS011;10761;48.532;8.026;2023-03-02T09:18:32;42.22;;;28.65;;
21206;SDS011;10761;48.532;8.026;2023-03-02T09:20:59;44.28;;;28.63;;
21206;SDS011;10761;48.532;8.026;2023-03-02T09:23:25;43.10;;;29.35;;
21206;SDS011;10761;48.532;8.026;2023-03-02T09:25:51;50.50;;;29.00;;
21206;SDS011;10761;48.532;8.026;2023-03-02T09:28:17;42.95;;;28.95;;
21206;SDS011;10761;48.532;8.026;2023-03-02T09:30:52;39.85;;;27.13;;
21206;SDS011;10761;48.532;8.026;2023-03-02T09:33:20;41.40;;;27.63;;
21206;SDS011;10761;48.532;8.026;2023-03-02T09:35:46;47.50;;;28.13;;
21206;SDS011;10761;48.532;8.026;2023-03-02T09:38:13;41.97;;;28.35;;
21206;SDS011;10761;48.532;8.026;2023-03-02T09:46:01;41.05;;;27.02;;
21206;SDS011;10761;48.532;8.026;2023-03-02T09:54:09;42.22;;;27.90;;
21206;SDS011;10761;48.532;8.026;2023-03-02T09:56:46;42.55;;;27.23;;
21206;SDS011;10761;48.532;8.026;2023-03-02T10:04:48;43.60;;;27.63;;
21206;SDS011;10761;48.532;8.026;2023-03-02T10:09:53;45.97;;;29.45;;
21206;SDS011;10761;48.532;8.026;2023-03-02T10:12:40;46.13;;;28.13;;
21206;SDS011;10761;48.532;8.026;2023-03-02T10:15:37;44.42;;;29.25;;
21206;SDS011;10761;48.532;8.026;2023-03-02T10:18:17;42.90;;;29.23;;
21206;SDS011;10761;48.532;8.026;2023-03-02T10:20:48;41.47;;;27.95;;
21206;SDS011;10761;48.532;8.026;2023-03-02T10:31:37;44.00;;;29.55;;
21206;SDS011;10761;48.532;8.026;2023-03-02T10:34:04;48.88;;;29.98;;
21206;SDS011;10761;48.532;8.026;2023-03-02T10:36:39;43.45;;;27.75;;
21206;SDS011;10761;48.532;8.026;2023-03-02T10:39:14;40.60;;;28.25;;
21206;SDS011;10761;48.532;8.026;2023-03-02T10:41:51;41.10;;;27.08;;
21206;SDS011;10761;48.532;8.026;2023-03-02T10:44:37;42.72;;;27.85;;
21206;SDS011;10761;48.532;8.026;2023-03-02T10:47:06;47.53;;;30.30;;
21206;SDS011;10761;48.532;8.026;2023-03-02T10:49:36;44.55;;;31.27;;
21206;SDS011;10761;48.532;8.026;2023-03-02T10:52:19;48.67;;;30.15;;
21206;SDS011;10761;48.532;8.026;2023-03-02T10:54:47;46.55;;;30.27;;
21206;SDS011;10761;48.532;8.026;2023-03-02T10:57:57;48.35;;;30.83;;
21206;SDS011;10761;48.532;8.026;2023-03-02T11:02:35;46.60;;;29.98;;
21206;SDS011;10761;48.532;8.026;2023-03-02T11:08:03;46.30;;;29.52;;
21206;SDS011;10761;48.532;8.026;2023-03-02T11:12:56;44.05;;;28.83;;
21206;SDS011;10761;48.532;8.026;2023-03-02T11:15:56;44.13;;;29.80;;
21206;SDS011;10761;48.532;8.026;2023-03-02T11:18:30;46.45;;;29.05;;
21206;SDS011;10761;48.532;8.026;2023-03-02T11:21:13;43.60;;;29.00;;
21206;SDS011;10761;48.532;8.026;2023-03-02T11:23:48;42.38;;;29.70;;
21206;SDS011;10761;48.532;8.026;2023-03-02T11:26:55;42.78;;;27.40;;
21206;SDS011;10761;48.532;8.026;2023-03-02T11:29:43;42.08;;;29.00;;
21206;SDS011;10761;48.532;8.026;2023-03-02T11:32:21;44.40;;;29.55;;
21206;SDS011;10761;48.532;8.026;2023-03-02T11:37:52;41.85;;;27.80;;
21206;SDS011;10761;48.532;8.026;2023-03-02T11:40:25;43.75;;;29.70;;
21206;SDS011;10761;48.532;8.026;2023-03-02T11:42:57;45.67;;;29.27;;
21206;SDS011;10761;48.532;8.026;2023-03-02T11:45:44;45.97;;;28.08;;
21206;SDS011;10761;48.532;8.026;2023-03-02T11:48:23;42.33;;;27.48;;
21206;SDS011;10761;48.532;8.026;2023-03-02T11:53:29;43.72;;;28.98;;
21206;SDS011;10761;48.532;8.026;2023-03-02T11:56:05;46.15;;;28.33;;
21206;SDS011;10761;48.532;8.026;2023-03-02T11:58:31;40.13;;;28.02;;
21206;SDS011;10761;48.532;8.026;2023-03-02T12:00:58;43.67;;;28.90;;
21206;SDS011;10761;48.532;8.026;2023-03-02T12:05:58;43.55;;;29.05;;
21206;SDS011;10761;48.532;8.026;2023-03-02T12:08:43;40.30;;;27.60;;
21206;SDS011;10761;48.532;8.026;2023-03-02T12:13:42;41.38;;;28.30;;
21206;SDS011;10761;48.532;8.026;2023-03-02T12:16:19;41.88;;;26.70;;
21206;SDS011;10761;48.532;8.026;2023-03-02T12:21:40;43.22;;;27.70;;
21206;SDS011;10761;48.532;8.026;2023-03-02T12:24:23;41.05;;;27.73;;
21206;SDS011;10761;48.532;8.026;2023-03-02T12:27:03;43.00;;;27.88;;
21206;SDS011;10761;48.532;8.026;2023-03-02T12:29:46;41.58;;;27.38;;
21206;SDS011;10761;48.532;8.026;2023-03-02T12:37:25;40.75;;;27.90;;
21206;SDS011;10761;48.532;8.026;2023-03-02T12:45:34;44.63;;;27.55;;
21206;SDS011;10761;48.532;8.026;2023-03-02T12:48:26;37.83;;;26.55;;
21206;SDS011;10761;48.532;8.026;2023-03-02T12:51:20;42.88;;;26.58;;
21206;SDS011;10761;48.532;8.026;2023-03-02T12:53:48;42.13;;;27.20;;
21206;SDS011;10761;48.532;8.026;2023-03-02T12:56:24;35.13;;;23.73;;
21206;SDS011;10761;48.532;8.026;2023-03-02T12:58:51;38.40;;;24.98;;
21206;SDS011;10761;48.532;8.026;2023-03-02T13:01:22;36.30;;;24.63;;
21206;SDS011;10761;48.532;8.026;2023-03-02T13:03:49;37.65;;;24.33;;
21206;SDS011;10761;48.532;8.026;2023-03-02T13:06:16;39.17;;;26.60;;
21206;SDS011;10761;48.532;8.026;2023-03-02T13:08:43;37.10;;;26.38;;
21206;SDS011;10761;48.532;8.026;2023-03-02T13:11:12;41.17;;;26.55;;
21206;SDS011;10761;48.532;8.026;2023-03-02T13:13:44;39.38;;;26.58;;
21206;SDS011;10761;48.532;8.026;2023-03-02T13:16:23;44.45;;;27.95;;
21206;SDS011;10761;48.532;8.026;2023-03-02T13:18:55;36.28;;;25.13;;
21206;SDS011;10761;48.532;8.026;2023-03-02T13:21:25;41.35;;;27.02;;
21206;SDS011;10761;48.532;8.026;2023-03-02T13:23:57;37.72;;;25.95;;
21206;SDS011;10761;48.532;8.026;2023-03-02T13:26:27;37.92;;;25.60;;
21206;SDS011;10761;48.532;8.026;2023-03-02T13:31:38;44.45;;;26.02;;
21206;SDS011;10761;48.532;8.026;2023-03-02T13:34:04;40.40;;;25.48;;
21206;SDS011;10761;48.532;8.026;2023-03-02T13:36:34;37.85;;;25.23;;
21206;SDS011;10761;48.532;8.026;2023-03-02T13:39:05;35.25;;;24.50;;
21206;SDS011;10761;48.532;8.026;2023-03-02T13:41:34;39.63;;;24.95;;
21206;SDS011;10761;48.532;8.026;2023-03-02T13:44:10;34.20;;;23.42;;
21206;SDS011;10761;48.532;8.026;2023-03-02T13:46:44;36.30;;;24.77;;
21206;SDS011;10761;48.532;8.026;2023-03-02T13:49:10;34.72;;;22.33;;
21206;SDS011;10761;48.532;8.026;2023-03-02T13:51:42;38.10;;;24.27;;
21206;SDS011;10761;48.532;8.026;2023-03-02T13:54:20;35.22;;;22.33;;
21206;SDS011;10761;48.532;8.026;2023-03-02T13:56:50;35.28;;;22.63;;
21206;SDS011;10761;48.532;8.026;2023-03-02T13:59:17;31.08;;;20.75;;
21206;SDS011;10761;48.532;8.026;2023-03-02T14:01:44;31.60;;;20.95;;
21206;SDS011;10761;48.532;8.026;2023-03-02T14:04:10;33.85;;;22.27;;
21206;SDS011;10761;48.532;8.026;2023-03-02T14:06:43;35.88;;;23.08;;
21206;SDS011;10761;48.532;8.026;2023-03-02T14:09:09;34.83;;;21.25;;
21206;SDS011;10761;48.532;8.026;2023-03-02T14:11:56;35.05;;;21.92;;
21206;SDS011;10761;48.532;8.026;2023-03-02T14:14:22;35.75;;;24.80;;
21206;SDS011;10761;48.532;8.026;2023-03-02T14:16:50;35.22;;;23.20;;
21206;SDS011;10761;48.532;8.026;2023-03-02T14:19:16;32.50;;;23.17;;
21206;SDS011;10761;48.532;8.026;2023-03-02T14:21:42;37.40;;;25.48;;
21206;SDS011;10761;48.532;8.026;2023-03-02T14:24:09;33.13;;;22.77;;
21206;SDS011;10761;48.532;8.026;2023-03-02T14:26:39;31.92;;;22.33;;
21206;SDS011;10761;48.532;8.026;2023-03-02T14:31:35;37.08;;;21.80;;
21206;SDS011;10761;48.532;8.026;2023-03-02T14:34:00;33.30;;;22.95;;
21206;SDS011;10761;48.532;8.026;2023-03-02T14:36:27;32.40;;;21.73;;
21206;SDS011;10761;48.532;8.026;2023-03-02T14:38:56;38.65;;;22.38;;
21206;SDS011;10761;48.532;8.026;2023-03-02T14:41:25;39.85;;;23.10;;
21206;SDS011;10761;48.532;8.026;2023-03-02T14:43:52;30.63;;;21.63;;
21206;SDS011;10761;48.532;8.026;2023-03-02T14:46:18;33.20;;;23.23;;
21206;SDS011;10761;48.532;8.026;2023-03-02T14:48:43;36.65;;;23.08;;
21206;SDS011;10761;48.532;8.026;2023-03-02T14:51:26;38.40;;;23.08;;
21206;SDS011;10761;48.532;8.026;2023-03-02T14:53:55;30.67;;;22.40;;
21206;SDS011;10761;48.532;8.026;2023-03-02T14:56:23;34.72;;;23.02;;
21206;SDS011;10761;48.532;8.026;2023-03-02T14:58:49;32.17;;;21.98;;
21206;SDS011;10761;48.532;8.026;2023-03-02T15:01:16;36.63;;;22.77;;
21206;SDS011;10761;48.532;8.026;2023-03-02T15:03:42;35.95;;;23.40;;
21206;SDS011;10761;48.532;8.026;2023-03-02T15:06:17;36.33;;;23.27;;
21206;SDS011;10761;48.532;8.026;2023-03-02T15:08:49;39.50;;;23.15;;
21206;SDS011;10761;48.532;8.026;2023-03-02T15:11:15;38.70;;;22.48;;
21206;SDS011;10761;48.532;8.026;2023-03-02T15:13:41;35.42;;;22.27;;
21206;SDS011;10761;48.532;8.026;2023-03-02T15:16:10;34.95;;;23.80;;
21206;SDS011;10761;48.532;8.026;2023-03-02T15:18:36;35.95;;;22.63;;
21206;SDS011;10761;48.532;8.026;2023-03-02T15:21:02;39.03;;;23.60;;
21206;SDS011;10761;48.532;8.026;2023-03-02T15:23:28;38.95;;;23.50;;
21206;SDS011;10761;48.532;8.026;2023-03-02T15:25:58;35.13;;;22.48;;
21206;SDS011;10761;48.532;8.026;2023-03-02T15:28:24;37.45;;;23.58;;
21206;SDS011;10761;48.532;8.026;2023-03-02T15:30:50;34.10;;;22.70;;
21206;SDS011;10761;48.532;8.026;2023-03-02T15:33:15;34.90;;;23.05;;
21206;SDS011;10761;48.532;8.026;2023-03-02T15:35:41;43.67;;;22.85;;
21206;SDS011;10761;48.532;8.026;2023-03-02T15:38:08;34.95;;;23.50;;
21206;SDS011;10761;48.532;8.026;2023-03-02T15:40:34;35.50;;;23.65;;
21206;SDS011;10761;48.532;8.026;2023-03-02T15:43:00;37.75;;;24.20;;